sensor_id;sensor_type;location;lat;lon;timestamp;P1;durP1;ratioP1;P2;durP2;ratioP2
42742;SDS011;28397;44.552;-0.848;2023-12-04T00:02:14;3.33;;;2.67;;
42742;SDS011;28397;44.552;-0.848;2023-12-04T00:04:39;3.33;;;2.95;;
42742;SDS011;28397;44.552;-0.848;2023-12-04T00:07:05;3.42;;;2.80;;
42742;SDS011;28397;44.552;-0.848;2023-12-04T00:09:31;3.40;;;3.10;;
42742;SDS011;28397;44.552;-0.848;2023-12-04T00:11:56;3.13;;;2.70;;
42742;SDS011;28397;44.552;-0.848;2023-12-04T00:14:22;3.50;;;3.00;;
42742;SDS011;28397;44.552;-0.848;2023-12-04T00:16:48;3.47;;;2.72;;
42742;SDS011;28397;44.552;-0.848;2023-12-04T00:19:13;2.80;;;2.50;;
42742;SDS011;28397;44.552;-0.848;2023-12-04T00:21:39;4.68;;;2.70;;
42742;SDS011;28397;44.552;-0.848;2023-12-04T00:24:05;4.05;;;3.00;;
42742;SDS011;28397;44.552;-0.848;2023-12-04T00:26:30;3.10;;;2.78;;
42742;SDS011;28397;44.552;-0.848;2023-12-04T00:28:56;3.08;;;2.78;;
42742;SDS011;28397;44.552;-0.848;2023-12-04T00:31:22;3.42;;;2.78;;
42742;SDS011;28397;44.552;-0.848;2023-12-04T00:33:47;3.28;;;2.97;;
42742;SDS011;28397;44.552;-0.848;2023-12-04T00:36:13;3.83;;;2.92;;
42742;SDS011;28397;44.552;-0.848;2023-12-04T00:38:39;3.10;;;2.80;;
42742;SDS011;28397;44.552;-0.848;2023-12-04T00:41:05;3.83;;;3.00;;
42742;SDS011;28397;44.552;-0.848;2023-12-04T00:43:30;3.00;;;2.80;;
42742;SDS011;28397;44.552;-0.848;2023-12-04T00:45:56;4.15;;;2.97;;
42742;SDS011;28397;44.552;-0.848;2023-12-04T00:48:22;3.25;;;2.70;;
42742;SDS011;28397;44.552;-0.848;2023-12-04T00:50:47;3.22;;;2.70;;
42742;SDS011;28397;44.552;-0.848;2023-12-04T00:53:13;3.38;;;2.60;;
42742;SDS011;28397;44.552;-0.848;2023-12-04T00:55:39;2.85;;;2.60;;
42742;SDS011;28397;44.552;-0.848;2023-12-04T00:58:04;3.78;;;2.78;;
42742;SDS011;28397;44.552;-0.848;2023-12-04T01:00:30;2.88;;;2.63;;
42742;SDS011;28397;44.552;-0.848;2023-12-04T01:02:56;3.35;;;2.60;;
42742;SDS011;28397;44.552;-0.848;2023-12-04T01:05:21;3.45;;;3.10;;
42742;SDS011;28397;44.552;-0.848;2023-12-04T01:07:47;3.25;;;2.60;;
42742;SDS011;28397;44.552;-0.848;2023-12-04T01:10:13;3.08;;;2.72;;
42742;SDS011;28397;44.552;-0.848;2023-12-04T01:12:38;3.72;;;2.78;;
42742;SDS011;28397;44.552;-0.848;2023-12-04T01:15:04;3.28;;;2.90;;
42742;SDS011;28397;44.552;-0.848;2023-12-04T01:17:30;3.28;;;2.92;;
42742;SDS011;28397;44.552;-0.848;2023-12-04T01:19:56;4.07;;;3.00;;
42742;SDS011;28397;44.552;-0.848;2023-12-04T01:22:22;3.30;;;2.90;;
42742;SDS011;28397;44.552;-0.848;2023-12-04T01:24:48;4.88;;;2.55;;
42742;SDS011;28397;44.552;-0.848;2023-12-04T01:27:14;4.32;;;2.55;;
42742;SDS011;28397;44.552;-0.848;2023-12-04T01:29:40;3.60;;;2.60;;
42742;SDS011;28397;44.552;-0.848;2023-12-04T01:32:05;4.07;;;2.83;;
42742;SDS011;28397;44.552;-0.848;2023-12-04T01:34:31;2.95;;;2.70;;
42742;SDS011;28397;44.552;-0.848;2023-12-04T01:36:57;2.90;;;2.60;;
42742;SDS011;28397;44.552;-0.848;2023-12-04T01:39:22;3.15;;;2.72;;
42742;SDS011;28397;44.552;-0.848;2023-12-04T01:41:48;3.55;;;2.40;;
42742;SDS011;28397;44.552;-0.848;2023-12-04T01:44:14;3.33;;;2.80;;
42742;SDS011;28397;44.552;-0.848;2023-12-04T01:46:40;2.72;;;2.53;;
42742;SDS011;28397;44.552;-0.848;2023-12-04T01:49:07;3.65;;;2.90;;
42742;SDS011;28397;44.552;-0.848;2023-12-04T01:51:33;3.63;;;2.90;;
42742;SDS011;28397;44.552;-0.848;2023-12-04T01:54:00;4.18;;;2.80;;
42742;SDS011;28397;44.552;-0.848;2023-12-04T01:56:27;3.90;;;2.80;;
42742;SDS011;28397;44.552;-0.848;2023-12-04T01:58:54;3.40;;;2.63;;
42742;SDS011;28397;44.552;-0.848;2023-12-04T02:01:20;3.75;;;2.78;;
42742;SDS011;28397;44.552;-0.848;2023-12-04T02:03:47;4.40;;;2.50;;
42742;SDS011;28397;44.552;-0.848;2023-12-04T02:06:13;4.32;;;2.67;;
42742;SDS011;28397;44.552;-0.848;2023-12-04T02:08:40;3.85;;;2.70;;
42742;SDS011;28397;44.552;-0.848;2023-12-04T02:11:06;4.43;;;2.70;;
42742;SDS011;28397;44.552;-0.848;2023-12-04T02:13:32;4.07;;;2.78;;
42742;SDS011;28397;44.552;-0.848;2023-12-04T02:15:58;4.05;;;2.97;;
42742;SDS011;28397;44.552;-0.848;2023-12-04T02:18:28;3.47;;;2.90;;
42742;SDS011;28397;44.552;-0.848;2023-12-04T02:20:54;3.72;;;2.80;;
42742;SDS011;28397;44.552;-0.848;2023-12-04T02:23:20;4.18;;;2.90;;
42742;SDS011;28397;44.552;-0.848;2023-12-04T02:25:45;2.63;;;2.42;;
42742;SDS011;28397;44.552;-0.848;2023-12-04T02:28:11;3.70;;;2.75;;
42742;SDS011;28397;44.552;-0.848;2023-12-04T02:30:41;4.35;;;2.85;;
42742;SDS011;28397;44.552;-0.848;2023-12-04T02:33:09;4.63;;;2.58;;
42742;SDS011;28397;44.552;-0.848;2023-12-04T02:35:38;3.40;;;2.75;;
42742;SDS011;28397;44.552;-0.848;2023-12-04T02:38:05;3.78;;;2.58;;
42742;SDS011;28397;44.552;-0.848;2023-12-04T02:40:32;4.32;;;2.80;;
42742;SDS011;28397;44.552;-0.848;2023-12-04T02:42:58;2.90;;;2.60;;
42742;SDS011;28397;44.552;-0.848;2023-12-04T02:45:24;4.68;;;2.50;;
42742;SDS011;28397;44.552;-0.848;2023-12-04T02:47:50;3.63;;;2.60;;
42742;SDS011;28397;44.552;-0.848;2023-12-04T02:50:15;3.28;;;2.60;;
42742;SDS011;28397;44.552;-0.848;2023-12-04T02:52:41;2.90;;;2.60;;
42742;SDS011;28397;44.552;-0.848;2023-12-04T02:55:07;2.97;;;2.15;;
42742;SDS011;28397;44.552;-0.848;2023-12-04T02:57:32;2.63;;;2.33;;
42742;SDS011;28397;44.552;-0.848;2023-12-04T02:59:58;3.05;;;2.45;;
42742;SDS011;28397;44.552;-0.848;2023-12-04T03:02:24;3.17;;;2.20;;
42742;SDS011;28397;44.552;-0.848;2023-12-04T03:04:50;2.95;;;2.60;;
42742;SDS011;28397;44.552;-0.848;2023-12-04T03:07:15;3.13;;;2.60;;
42742;SDS011;28397;44.552;-0.848;2023-12-04T03:09:41;3.15;;;2.70;;
42742;SDS011;28397;44.552;-0.848;2023-12-04T03:12:07;4.70;;;2.88;;
42742;SDS011;28397;44.552;-0.848;2023-12-04T03:14:32;3.70;;;3.10;;
42742;SDS011;28397;44.552;-0.848;2023-12-04T03:16:58;4.15;;;2.80;;
42742;SDS011;28397;44.552;-0.848;2023-12-04T03:19:24;3.35;;;2.78;;
42742;SDS011;28397;44.552;-0.848;2023-12-04T03:21:49;3.38;;;2.65;;
42742;SDS011;28397;44.552;-0.848;2023-12-04T03:24:15;2.85;;;2.55;;
42742;SDS011;28397;44.552;-0.848;2023-12-04T03:26:41;2.85;;;2.55;;
42742;SDS011;28397;44.552;-0.848;2023-12-04T03:29:06;2.83;;;2.50;;
42742;SDS011;28397;44.552;-0.848;2023-12-04T03:31:32;3.58;;;2.65;;
42742;SDS011;28397;44.552;-0.848;2023-12-04T03:33:59;3.85;;;2.50;;
42742;SDS011;28397;44.552;-0.848;2023-12-04T03:36:25;4.25;;;2.45;;
42742;SDS011;28397;44.552;-0.848;2023-12-04T03:38:50;5.40;;;2.58;;
42742;SDS011;28397;44.552;-0.848;2023-12-04T03:41:16;3.00;;;2.50;;
42742;SDS011;28397;44.552;-0.848;2023-12-04T03:43:42;4.28;;;2.70;;
42742;SDS011;28397;44.552;-0.848;2023-12-04T03:46:08;3.45;;;2.75;;
42742;SDS011;28397;44.552;-0.848;2023-12-04T03:48:34;4.10;;;2.50;;
42742;SDS011;28397;44.552;-0.848;2023-12-04T03:50:59;3.05;;;2.40;;
42742;SDS011;28397;44.552;-0.848;2023-12-04T03:53:26;2.90;;;2.50;;
42742;SDS011;28397;44.552;-0.848;2023-12-04T03:55:52;3.30;;;2.63;;
42742;SDS011;28397;44.552;-0.848;2023-12-04T03:58:17;3.17;;;2.47;;
42742;SDS011;28397;44.552;-0.848;2023-12-04T04:00:43;3.33;;;2.35;;
42742;SDS011;28397;44.552;-0.848;2023-12-04T04:03:09;3.42;;;2.45;;
42742;SDS011;28397;44.552;-0.848;2023-12-04T04:05:35;4.32;;;2.70;;
42742;SDS011;28397;44.552;-0.848;2023-12-04T04:08:01;2.45;;;2.25;;
42742;SDS011;28397;44.552;-0.848;2023-12-04T04:10:27;3.25;;;2.40;;
42742;SDS011;28397;44.552;-0.848;2023-12-04T04:12:52;2.60;;;2.40;;
42742;SDS011;28397;44.552;-0.848;2023-12-04T04:15:18;2.58;;;2.38;;
42742;SDS011;28397;44.552;-0.848;2023-12-04T04:17:44;3.40;;;2.78;;
42742;SDS011;28397;44.552;-0.848;2023-12-04T04:20:10;3.15;;;2.45;;
42742;SDS011;28397;44.552;-0.848;2023-12-04T04:22:37;3.95;;;2.50;;
42742;SDS011;28397;44.552;-0.848;2023-12-04T04:25:05;3.75;;;2.33;;
42742;SDS011;28397;44.552;-0.848;2023-12-04T04:27:32;3.05;;;2.25;;
42742;SDS011;28397;44.552;-0.848;2023-12-04T04:29:58;4.35;;;2.33;;
42742;SDS011;28397;44.552;-0.848;2023-12-04T04:32:23;2.83;;;2.47;;
42742;SDS011;28397;44.552;-0.848;2023-12-04T04:34:49;2.72;;;2.38;;
42742;SDS011;28397;44.552;-0.848;2023-12-04T04:37:15;2.92;;;2.33;;
42742;SDS011;28397;44.552;-0.848;2023-12-04T04:39:40;2.78;;;2.42;;
42742;SDS011;28397;44.552;-0.848;2023-12-04T04:42:06;3.53;;;2.42;;
42742;SDS011;28397;44.552;-0.848;2023-12-04T04:44:32;4.07;;;2.58;;
42742;SDS011;28397;44.552;-0.848;2023-12-04T04:46:57;3.40;;;2.45;;
42742;SDS011;28397;44.552;-0.848;2023-12-04T04:49:23;4.22;;;2.33;;
42742;SDS011;28397;44.552;-0.848;2023-12-04T04:51:49;2.92;;;2.60;;
42742;SDS011;28397;44.552;-0.848;2023-12-04T04:54:14;2.63;;;2.40;;
42742;SDS011;28397;44.552;-0.848;2023-12-04T04:56:40;2.95;;;2.50;;
42742;SDS011;28397;44.552;-0.848;2023-12-04T04:59:06;2.40;;;2.20;;
42742;SDS011;28397;44.552;-0.848;2023-12-04T05:01:31;3.08;;;2.58;;
42742;SDS011;28397;44.552;-0.848;2023-12-04T05:03:57;3.63;;;2.60;;
42742;SDS011;28397;44.552;-0.848;2023-12-04T05:06:22;3.88;;;2.50;;
42742;SDS011;28397;44.552;-0.848;2023-12-04T05:08:48;3.00;;;2.40;;
42742;SDS011;28397;44.552;-0.848;2023-12-04T05:11:17;3.30;;;2.28;;
42742;SDS011;28397;44.552;-0.848;2023-12-04T05:13:46;2.67;;;2.33;;
42742;SDS011;28397;44.552;-0.848;2023-12-04T05:16:12;3.78;;;2.67;;
42742;SDS011;28397;44.552;-0.848;2023-12-04T05:18:38;3.03;;;2.50;;
42742;SDS011;28397;44.552;-0.848;2023-12-04T05:21:13;4.00;;;2.80;;
42742;SDS011;28397;44.552;-0.848;2023-12-04T05:23:39;3.67;;;2.60;;
42742;SDS011;28397;44.552;-0.848;2023-12-04T05:26:05;2.90;;;2.67;;
42742;SDS011;28397;44.552;-0.848;2023-12-04T05:28:31;2.70;;;2.50;;
42742;SDS011;28397;44.552;-0.848;2023-12-04T05:30:57;3.13;;;2.53;;
42742;SDS011;28397;44.552;-0.848;2023-12-04T05:33:23;4.35;;;2.80;;
42742;SDS011;28397;44.552;-0.848;2023-12-04T05:35:49;3.22;;;2.67;;
42742;SDS011;28397;44.552;-0.848;2023-12-04T05:38:16;3.25;;;2.50;;
42742;SDS011;28397;44.552;-0.848;2023-12-04T05:40:42;4.10;;;2.78;;
42742;SDS011;28397;44.552;-0.848;2023-12-04T05:43:08;3.22;;;2.63;;
42742;SDS011;28397;44.552;-0.848;2023-12-04T05:45:34;3.88;;;2.63;;
42742;SDS011;28397;44.552;-0.848;2023-12-04T05:47:59;2.88;;;2.50;;
42742;SDS011;28397;44.552;-0.848;2023-12-04T05:50:25;3.65;;;2.67;;
42742;SDS011;28397;44.552;-0.848;2023-12-04T05:52:51;3.88;;;2.88;;
42742;SDS011;28397;44.552;-0.848;2023-12-04T05:55:17;3.35;;;2.67;;
42742;SDS011;28397;44.552;-0.848;2023-12-04T05:57:43;2.78;;;2.47;;
42742;SDS011;28397;44.552;-0.848;2023-12-04T06:00:09;4.00;;;2.60;;
42742;SDS011;28397;44.552;-0.848;2023-12-04T06:02:42;3.80;;;2.45;;
42742;SDS011;28397;44.552;-0.848;2023-12-04T06:05:08;3.28;;;2.47;;
42742;SDS011;28397;44.552;-0.848;2023-12-04T06:07:35;3.90;;;2.53;;
42742;SDS011;28397;44.552;-0.848;2023-12-04T06:10:01;3.05;;;2.50;;
42742;SDS011;28397;44.552;-0.848;2023-12-04T06:12:29;3.65;;;2.60;;
42742;SDS011;28397;44.552;-0.848;2023-12-04T06:14:55;4.43;;;2.80;;
42742;SDS011;28397;44.552;-0.848;2023-12-04T06:17:21;4.28;;;2.95;;
42742;SDS011;28397;44.552;-0.848;2023-12-04T06:19:47;4.60;;;2.60;;
42742;SDS011;28397;44.552;-0.848;2023-12-04T06:22:12;3.60;;;2.35;;
42742;SDS011;28397;44.552;-0.848;2023-12-04T06:24:38;2.85;;;2.20;;
42742;SDS011;28397;44.552;-0.848;2023-12-04T06:27:05;5.80;;;2.75;;
42742;SDS011;28397;44.552;-0.848;2023-12-04T06:29:33;4.65;;;2.30;;
42742;SDS011;28397;44.552;-0.848;2023-12-04T06:32:00;4.55;;;2.60;;
42742;SDS011;28397;44.552;-0.848;2023-12-04T06:34:26;3.58;;;2.33;;
42742;SDS011;28397;44.552;-0.848;2023-12-04T06:36:52;3.65;;;2.13;;
42742;SDS011;28397;44.552;-0.848;2023-12-04T06:39:20;4.85;;;2.28;;
42742;SDS011;28397;44.552;-0.848;2023-12-04T06:41:47;2.97;;;2.08;;
42742;SDS011;28397;44.552;-0.848;2023-12-04T06:44:13;4.43;;;2.35;;
42742;SDS011;28397;44.552;-0.848;2023-12-04T06:46:39;5.43;;;2.50;;
42742;SDS011;28397;44.552;-0.848;2023-12-04T06:49:10;4.65;;;2.60;;
42742;SDS011;28397;44.552;-0.848;2023-12-04T06:51:38;5.57;;;2.65;;
42742;SDS011;28397;44.552;-0.848;2023-12-04T06:54:04;5.60;;;2.78;;
42742;SDS011;28397;44.552;-0.848;2023-12-04T06:56:32;4.65;;;2.25;;
42742;SDS011;28397;44.552;-0.848;2023-12-04T06:58:58;5.97;;;2.35;;
42742;SDS011;28397;44.552;-0.848;2023-12-04T07:01:23;3.65;;;2.47;;
42742;SDS011;28397;44.552;-0.848;2023-12-04T07:03:49;5.68;;;2.47;;
42742;SDS011;28397;44.552;-0.848;2023-12-04T07:06:15;4.07;;;2.50;;
42742;SDS011;28397;44.552;-0.848;2023-12-04T07:08:40;6.80;;;2.60;;
42742;SDS011;28397;44.552;-0.848;2023-12-04T07:11:06;5.00;;;2.50;;
42742;SDS011;28397;44.552;-0.848;2023-12-04T07:13:33;5.25;;;2.83;;
42742;SDS011;28397;44.552;-0.848;2023-12-04T07:15:59;5.53;;;2.70;;
42742;SDS011;28397;44.552;-0.848;2023-12-04T07:18:25;5.00;;;2.60;;
42742;SDS011;28397;44.552;-0.848;2023-12-04T07:20:51;6.15;;;2.47;;
42742;SDS011;28397;44.552;-0.848;2023-12-04T07:23:16;8.68;;;2.53;;
42742;SDS011;28397;44.552;-0.848;2023-12-04T07:25:42;7.00;;;2.58;;
42742;SDS011;28397;44.552;-0.848;2023-12-04T07:28:08;5.05;;;2.38;;
42742;SDS011;28397;44.552;-0.848;2023-12-04T07:30:33;6.32;;;2.33;;
42742;SDS011;28397;44.552;-0.848;2023-12-04T07:32:59;5.57;;;2.45;;
42742;SDS011;28397;44.552;-0.848;2023-12-04T07:35:25;7.85;;;2.92;;
42742;SDS011;28397;44.552;-0.848;2023-12-04T07:37:51;8.07;;;2.50;;
42742;SDS011;28397;44.552;-0.848;2023-12-04T07:40:17;4.13;;;2.22;;
42742;SDS011;28397;44.552;-0.848;2023-12-04T07:42:43;6.20;;;2.55;;
42742;SDS011;28397;44.552;-0.848;2023-12-04T07:45:09;6.05;;;2.40;;
42742;SDS011;28397;44.552;-0.848;2023-12-04T07:47:35;9.57;;;2.95;;
42742;SDS011;28397;44.552;-0.848;2023-12-04T07:50:01;8.20;;;2.70;;
42742;SDS011;28397;44.552;-0.848;2023-12-04T07:52:27;6.13;;;2.90;;
42742;SDS011;28397;44.552;-0.848;2023-12-04T07:54:53;7.05;;;2.60;;
42742;SDS011;28397;44.552;-0.848;2023-12-04T07:57:19;8.25;;;2.65;;
42742;SDS011;28397;44.552;-0.848;2023-12-04T07:59:44;6.10;;;2.45;;
42742;SDS011;28397;44.552;-0.848;2023-12-04T08:02:10;5.72;;;2.33;;
42742;SDS011;28397;44.552;-0.848;2023-12-04T08:04:36;5.38;;;2.20;;
42742;SDS011;28397;44.552;-0.848;2023-12-04T08:07:01;6.60;;;2.45;;
42742;SDS011;28397;44.552;-0.848;2023-12-04T08:09:27;6.30;;;2.72;;
42742;SDS011;28397;44.552;-0.848;2023-12-04T08:11:53;5.32;;;2.72;;
42742;SDS011;28397;44.552;-0.848;2023-12-04T08:14:18;7.15;;;2.85;;
42742;SDS011;28397;44.552;-0.848;2023-12-04T08:16:44;9.30;;;2.85;;
42742;SDS011;28397;44.552;-0.848;2023-12-04T08:19:09;9.73;;;2.85;;
42742;SDS011;28397;44.552;-0.848;2023-12-04T08:21:35;7.80;;;2.92;;
42742;SDS011;28397;44.552;-0.848;2023-12-04T08:24:01;6.90;;;2.70;;
42742;SDS011;28397;44.552;-0.848;2023-12-04T08:26:26;5.72;;;2.78;;
42742;SDS011;28397;44.552;-0.848;2023-12-04T08:28:52;6.40;;;2.78;;
42742;SDS011;28397;44.552;-0.848;2023-12-04T08:31:18;8.07;;;3.10;;
42742;SDS011;28397;44.552;-0.848;2023-12-04T08:33:44;9.27;;;2.97;;
42742;SDS011;28397;44.552;-0.848;2023-12-04T08:36:10;8.27;;;2.85;;
42742;SDS011;28397;44.552;-0.848;2023-12-04T08:38:37;11.45;;;3.08;;
42742;SDS011;28397;44.552;-0.848;2023-12-04T08:41:03;8.38;;;2.55;;
42742;SDS011;28397;44.552;-0.848;2023-12-04T08:43:29;7.43;;;2.90;;
42742;SDS011;28397;44.552;-0.848;2023-12-04T08:45:55;10.10;;;2.95;;
42742;SDS011;28397;44.552;-0.848;2023-12-04T08:48:21;8.73;;;3.10;;
42742;SDS011;28397;44.552;-0.848;2023-12-04T08:50:47;10.90;;;3.60;;
42742;SDS011;28397;44.552;-0.848;2023-12-04T08:53:13;10.52;;;3.30;;
42742;SDS011;28397;44.552;-0.848;2023-12-04T08:55:39;6.88;;;3.13;;
42742;SDS011;28397;44.552;-0.848;2023-12-04T08:58:04;11.75;;;3.60;;
42742;SDS011;28397;44.552;-0.848;2023-12-04T09:00:31;11.20;;;3.17;;
42742;SDS011;28397;44.552;-0.848;2023-12-04T09:02:57;13.07;;;3.53;;
42742;SDS011;28397;44.552;-0.848;2023-12-04T09:05:23;13.75;;;4.20;;
42742;SDS011;28397;44.552;-0.848;2023-12-04T09:07:48;13.45;;;3.60;;
42742;SDS011;28397;44.552;-0.848;2023-12-04T09:10:14;14.88;;;3.85;;
42742;SDS011;28397;44.552;-0.848;2023-12-04T09:12:40;16.10;;;4.28;;
42742;SDS011;28397;44.552;-0.848;2023-12-04T09:15:06;16.67;;;3.78;;
42742;SDS011;28397;44.552;-0.848;2023-12-04T09:17:32;15.82;;;3.58;;
42742;SDS011;28397;44.552;-0.848;2023-12-04T09:19:58;15.35;;;3.47;;
42742;SDS011;28397;44.552;-0.848;2023-12-04T09:22:24;15.10;;;4.15;;
42742;SDS011;28397;44.552;-0.848;2023-12-04T09:24:50;13.23;;;3.80;;
42742;SDS011;28397;44.552;-0.848;2023-12-04T09:27:15;13.35;;;3.20;;
42742;SDS011;28397;44.552;-0.848;2023-12-04T09:29:42;17.50;;;3.75;;
42742;SDS011;28397;44.552;-0.848;2023-12-04T09:32:08;15.93;;;4.13;;
42742;SDS011;28397;44.552;-0.848;2023-12-04T09:34:34;18.60;;;5.13;;
42742;SDS011;28397;44.552;-0.848;2023-12-04T09:37:00;22.30;;;4.97;;
42742;SDS011;28397;44.552;-0.848;2023-12-04T09:39:26;20.50;;;4.85;;
42742;SDS011;28397;44.552;-0.848;2023-12-04T09:41:52;27.25;;;6.05;;
42742;SDS011;28397;44.552;-0.848;2023-12-04T09:44:20;21.45;;;4.97;;
42742;SDS011;28397;44.552;-0.848;2023-12-04T09:46:47;18.65;;;4.25;;
42742;SDS011;28397;44.552;-0.848;2023-12-04T09:49:14;20.60;;;4.82;;
42742;SDS011;28397;44.552;-0.848;2023-12-04T09:51:41;15.02;;;4.07;;
42742;SDS011;28397;44.552;-0.848;2023-12-04T09:54:07;20.98;;;4.35;;
42742;SDS011;28397;44.552;-0.848;2023-12-04T09:56:34;19.58;;;4.28;;
42742;SDS011;28397;44.552;-0.848;2023-12-04T09:59:01;17.70;;;3.70;;
42742;SDS011;28397;44.552;-0.848;2023-12-04T10:01:30;22.98;;;4.90;;
42742;SDS011;28397;44.552;-0.848;2023-12-04T10:03:57;23.95;;;5.20;;
42742;SDS011;28397;44.552;-0.848;2023-12-04T10:06:26;23.92;;;5.32;;
42742;SDS011;28397;44.552;-0.848;2023-12-04T10:08:54;23.58;;;5.72;;
42742;SDS011;28397;44.552;-0.848;2023-12-04T10:11:23;22.55;;;5.20;;
42742;SDS011;28397;44.552;-0.848;2023-12-04T10:13:50;18.95;;;4.10;;
42742;SDS011;28397;44.552;-0.848;2023-12-04T10:16:31;23.70;;;5.40;;
42742;SDS011;28397;44.552;-0.848;2023-12-04T10:21:47;27.77;;;6.47;;
42742;SDS011;28397;44.552;-0.848;2023-12-04T10:24:48;32.85;;;6.72;;
42742;SDS011;28397;44.552;-0.848;2023-12-04T10:27:07;25.52;;;5.78;;
42742;SDS011;28397;44.552;-0.848;2023-12-04T10:29:46;27.15;;;5.85;;
42742;SDS011;28397;44.552;-0.848;2023-12-04T10:32:13;29.23;;;6.38;;
42742;SDS011;28397;44.552;-0.848;2023-12-04T10:34:41;32.47;;;6.50;;
42742;SDS011;28397;44.552;-0.848;2023-12-04T10:37:07;25.60;;;5.60;;
42742;SDS011;28397;44.552;-0.848;2023-12-04T10:39:49;27.77;;;5.45;;
42742;SDS011;28397;44.552;-0.848;2023-12-04T10:42:28;24.60;;;5.10;;
42742;SDS011;28397;44.552;-0.848;2023-12-04T10:44:57;28.75;;;5.80;;
42742;SDS011;28397;44.552;-0.848;2023-12-04T10:47:24;30.23;;;5.95;;
42742;SDS011;28397;44.552;-0.848;2023-12-04T10:49:51;24.17;;;5.40;;
42742;SDS011;28397;44.552;-0.848;2023-12-04T10:52:18;27.42;;;6.00;;
42742;SDS011;28397;44.552;-0.848;2023-12-04T10:54:45;27.23;;;6.03;;
42742;SDS011;28397;44.552;-0.848;2023-12-04T10:57:11;58.03;;;7.65;;
42742;SDS011;28397;44.552;-0.848;2023-12-04T10:59:41;29.02;;;6.72;;
42742;SDS011;28397;44.552;-0.848;2023-12-04T11:02:08;30.77;;;6.70;;
42742;SDS011;28397;44.552;-0.848;2023-12-04T11:04:38;36.83;;;7.07;;
42742;SDS011;28397;44.552;-0.848;2023-12-04T11:07:05;30.05;;;6.72;;
42742;SDS011;28397;44.552;-0.848;2023-12-04T11:09:34;33.08;;;7.18;;
42742;SDS011;28397;44.552;-0.848;2023-12-04T11:12:02;30.70;;;7.57;;
42742;SDS011;28397;44.552;-0.848;2023-12-04T11:14:44;34.23;;;8.17;;
42742;SDS011;28397;44.552;-0.848;2023-12-04T11:17:15;34.40;;;7.00;;
42742;SDS011;28397;44.552;-0.848;2023-12-04T11:19:57;29.90;;;7.45;;
42742;SDS011;28397;44.552;-0.848;2023-12-04T11:22:26;31.15;;;7.47;;
42742;SDS011;28397;44.552;-0.848;2023-12-04T11:24:53;30.92;;;7.47;;
42742;SDS011;28397;44.552;-0.848;2023-12-04T11:27:20;35.00;;;7.95;;
42742;SDS011;28397;44.552;-0.848;2023-12-04T11:29:47;25.00;;;5.97;;
42742;SDS011;28397;44.552;-0.848;2023-12-04T11:32:14;24.35;;;6.20;;
42742;SDS011;28397;44.552;-0.848;2023-12-04T11:34:59;25.77;;;6.00;;
42742;SDS011;28397;44.552;-0.848;2023-12-04T11:37:27;24.17;;;5.60;;
42742;SDS011;28397;44.552;-0.848;2023-12-04T11:39:53;23.40;;;5.78;;
42742;SDS011;28397;44.552;-0.848;2023-12-04T11:42:19;24.83;;;5.95;;
42742;SDS011;28397;44.552;-0.848;2023-12-04T11:44:49;22.92;;;5.32;;
42742;SDS011;28397;44.552;-0.848;2023-12-04T11:47:20;21.23;;;5.68;;
42742;SDS011;28397;44.552;-0.848;2023-12-04T11:49:46;26.42;;;6.82;;
42742;SDS011;28397;44.552;-0.848;2023-12-04T11:52:12;23.73;;;5.88;;
42742;SDS011;28397;44.552;-0.848;2023-12-04T11:57:31;23.25;;;5.78;;
42742;SDS011;28397;44.552;-0.848;2023-12-04T12:00:09;22.25;;;5.53;;
42742;SDS011;28397;44.552;-0.848;2023-12-04T12:05:19;18.63;;;4.40;;
42742;SDS011;28397;44.552;-0.848;2023-12-04T12:07:48;16.48;;;4.45;;
42742;SDS011;28397;44.552;-0.848;2023-12-04T12:10:15;20.90;;;5.20;;
42742;SDS011;28397;44.552;-0.848;2023-12-04T12:12:44;21.10;;;5.43;;
42742;SDS011;28397;44.552;-0.848;2023-12-04T12:15:11;25.90;;;5.32;;
42742;SDS011;28397;44.552;-0.848;2023-12-04T12:17:37;24.50;;;6.18;;
42742;SDS011;28397;44.552;-0.848;2023-12-04T12:20:11;28.10;;;5.63;;
42742;SDS011;28397;44.552;-0.848;2023-12-04T12:22:38;22.75;;;5.32;;
42742;SDS011;28397;44.552;-0.848;2023-12-04T12:25:09;20.30;;;5.07;;
42742;SDS011;28397;44.552;-0.848;2023-12-04T12:27:35;23.60;;;5.53;;
42742;SDS011;28397;44.552;-0.848;2023-12-04T12:30:02;26.85;;;5.38;;
42742;SDS011;28397;44.552;-0.848;2023-12-04T12:32:30;28.55;;;5.60;;
42742;SDS011;28397;44.552;-0.848;2023-12-04T12:35:00;31.83;;;6.15;;
42742;SDS011;28397;44.552;-0.848;2023-12-04T12:37:26;31.70;;;5.85;;
42742;SDS011;28397;44.552;-0.848;2023-12-04T12:39:53;14.75;;;4.75;;
42742;SDS011;28397;44.552;-0.848;2023-12-04T12:42:25;13.60;;;3.50;;
42742;SDS011;28397;44.552;-0.848;2023-12-04T12:44:51;16.02;;;3.95;;
42742;SDS011;28397;44.552;-0.848;2023-12-04T12:47:18;22.33;;;4.57;;
42742;SDS011;28397;44.552;-0.848;2023-12-04T12:49:44;21.85;;;5.13;;
42742;SDS011;28397;44.552;-0.848;2023-12-04T12:52:10;28.52;;;6.15;;
42742;SDS011;28397;44.552;-0.848;2023-12-04T12:54:45;26.13;;;6.20;;
42742;SDS011;28397;44.552;-0.848;2023-12-04T12:57:11;30.60;;;6.47;;
42742;SDS011;28397;44.552;-0.848;2023-12-04T12:59:38;25.65;;;6.95;;
42742;SDS011;28397;44.552;-0.848;2023-12-04T13:02:04;30.33;;;6.72;;
42742;SDS011;28397;44.552;-0.848;2023-12-04T13:07:00;24.77;;;6.25;;
42742;SDS011;28397;44.552;-0.848;2023-12-04T13:09:26;23.10;;;5.78;;
42742;SDS011;28397;44.552;-0.848;2023-12-04T13:11:52;24.58;;;5.65;;
42742;SDS011;28397;44.552;-0.848;2023-12-04T13:14:18;24.38;;;5.97;;
42742;SDS011;28397;44.552;-0.848;2023-12-04T13:16:43;23.60;;;5.72;;
42742;SDS011;28397;44.552;-0.848;2023-12-04T13:19:09;25.40;;;5.65;;
42742;SDS011;28397;44.552;-0.848;2023-12-04T13:21:34;24.35;;;5.95;;
42742;SDS011;28397;44.552;-0.848;2023-12-04T13:24:00;22.30;;;6.32;;
42742;SDS011;28397;44.552;-0.848;2023-12-04T13:26:26;22.00;;;6.07;;
42742;SDS011;28397;44.552;-0.848;2023-12-04T13:28:51;23.08;;;5.55;;
42742;SDS011;28397;44.552;-0.848;2023-12-04T13:31:17;22.02;;;6.30;;
42742;SDS011;28397;44.552;-0.848;2023-12-04T13:33:44;21.80;;;5.53;;
42742;SDS011;28397;44.552;-0.848;2023-12-04T13:36:12;21.77;;;5.70;;
42742;SDS011;28397;44.552;-0.848;2023-12-04T13:38:37;20.98;;;5.60;;
42742;SDS011;28397;44.552;-0.848;2023-12-04T13:41:03;24.15;;;5.85;;
42742;SDS011;28397;44.552;-0.848;2023-12-04T13:43:48;23.73;;;6.45;;
42742;SDS011;28397;44.552;-0.848;2023-12-04T13:46:16;22.95;;;6.03;;
42742;SDS011;28397;44.552;-0.848;2023-12-04T13:48:42;23.52;;;6.10;;
42742;SDS011;28397;44.552;-0.848;2023-12-04T13:51:09;24.15;;;5.40;;
42742;SDS011;28397;44.552;-0.848;2023-12-04T13:53:35;22.08;;;5.70;;
42742;SDS011;28397;44.552;-0.848;2023-12-04T13:56:04;20.38;;;5.00;;
42742;SDS011;28397;44.552;-0.848;2023-12-04T13:58:49;22.52;;;5.68;;
42742;SDS011;28397;44.552;-0.848;2023-12-04T14:01:25;24.27;;;5.57;;
42742;SDS011;28397;44.552;-0.848;2023-12-04T14:03:54;22.33;;;5.10;;
42742;SDS011;28397;44.552;-0.848;2023-12-04T14:06:30;21.65;;;5.07;;
42742;SDS011;28397;44.552;-0.848;2023-12-04T14:08:56;20.67;;;5.30;;
42742;SDS011;28397;44.552;-0.848;2023-12-04T14:11:23;25.80;;;5.35;;
42742;SDS011;28397;44.552;-0.848;2023-12-04T14:13:49;17.00;;;4.82;;
42742;SDS011;28397;44.552;-0.848;2023-12-04T14:16:15;17.52;;;4.22;;
42742;SDS011;28397;44.552;-0.848;2023-12-04T14:18:43;17.55;;;4.57;;
42742;SDS011;28397;44.552;-0.848;2023-12-04T14:21:09;19.65;;;4.65;;
42742;SDS011;28397;44.552;-0.848;2023-12-04T14:23:34;22.15;;;5.90;;
42742;SDS011;28397;44.552;-0.848;2023-12-04T14:26:00;21.63;;;5.68;;
42742;SDS011;28397;44.552;-0.848;2023-12-04T14:28:27;19.55;;;5.25;;
42742;SDS011;28397;44.552;-0.848;2023-12-04T14:30:53;21.67;;;5.47;;
42742;SDS011;28397;44.552;-0.848;2023-12-04T14:33:19;24.50;;;6.22;;
42742;SDS011;28397;44.552;-0.848;2023-12-04T14:35:45;21.05;;;5.57;;
42742;SDS011;28397;44.552;-0.848;2023-12-04T14:38:12;28.35;;;5.80;;